createdAt,value
2024-03-09T00:00:17.322Z,17.85
2024-03-09T00:04:20.619Z,18.00
2024-03-09T00:08:22.216Z,18.60
2024-03-09T00:12:23.680Z,18.70
2024-03-09T00:16:25.206Z,18.15
2024-03-09T00:20:36.264Z,19.38
2024-03-09T00:24:38.158Z,17.13
2024-03-09T00:28:42.023Z,19.23
2024-03-09T00:32:44.165Z,19.00
2024-03-09T00:36:47.457Z,16.67
2024-03-09T00:40:49.431Z,18.88
2024-03-09T00:44:51.039Z,17.95
2024-03-09T00:48:52.529Z,19.20
2024-03-09T00:52:54.221Z,16.55
2024-03-09T00:56:55.808Z,18.58
2024-03-09T01:00:57.329Z,20.17
2024-03-09T01:04:58.942Z,19.60
2024-03-09T01:09:01.159Z,20.55
2024-03-09T01:13:06.214Z,19.20
2024-03-09T01:17:07.793Z,20.98
2024-03-09T01:21:10.630Z,20.85
2024-03-09T01:25:12.378Z,16.27
2024-03-09T01:29:14.133Z,20.48
2024-03-09T01:33:15.741Z,19.85
2024-03-09T01:37:20.881Z,20.27
2024-03-09T01:41:26.980Z,21.17
2024-03-09T01:45:28.474Z,21.55
2024-03-09T01:49:31.792Z,21.05
2024-03-09T01:53:36.404Z,21.83
2024-03-09T01:57:38.866Z,22.33
2024-03-09T02:01:41.412Z,22.23
2024-03-09T02:05:46.653Z,22.92
2024-03-09T02:09:49.851Z,22.42
2024-03-09T02:13:52.415Z,21.17
2024-03-09T02:17:54.392Z,23.45
2024-03-09T02:21:57.098Z,20.55
2024-03-09T02:26:00.842Z,23.85
2024-03-09T02:30:03.128Z,24.40
2024-03-09T02:34:04.642Z,23.40
2024-03-09T02:38:06.451Z,23.60
2024-03-09T02:42:10.027Z,25.05
2024-03-09T02:46:12.011Z,25.63
2024-03-09T02:50:13.926Z,23.60
2024-03-09T02:54:16.482Z,24.73
2024-03-09T02:58:18.512Z,21.73
2024-03-09T03:02:38.431Z,25.10
2024-03-09T03:06:40.052Z,25.35
2024-03-09T03:10:42.096Z,25.77
2024-03-09T03:14:45.065Z,26.75
2024-03-09T03:18:50.725Z,25.52
2024-03-09T03:22:52.227Z,24.38
2024-03-09T03:26:53.962Z,24.00
2024-03-09T03:30:55.457Z,25.50
2024-03-09T03:34:56.993Z,25.17
2024-03-09T03:38:58.545Z,24.17
2024-03-09T03:43:00.250Z,22.02
2024-03-09T03:47:01.774Z,26.10
2024-03-09T03:51:03.377Z,24.05
2024-03-09T03:55:10.085Z,23.40
2024-03-09T03:59:12.318Z,23.73
2024-03-09T04:03:17.486Z,27.20
2024-03-09T04:07:19.018Z,24.27
2024-03-09T04:11:20.556Z,22.38
2024-03-09T04:15:22.137Z,27.20
2024-03-09T04:19:23.690Z,24.77
2024-03-09T04:23:25.487Z,21.13
2024-03-09T04:27:27.066Z,24.85
2024-03-09T04:31:28.822Z,25.38
2024-03-09T04:35:30.347Z,26.00
2024-03-09T04:39:37.328Z,27.70
2024-03-09T04:43:41.527Z,28.10
2024-03-09T04:47:43.453Z,26.77
2024-03-09T04:51:45.042Z,26.08
2024-03-09T04:55:52.033Z,27.38
2024-03-09T04:59:53.603Z,26.80
2024-03-09T05:03:55.097Z,28.73
2024-03-09T05:07:56.539Z,26.65
2024-03-09T05:11:59.135Z,28.15
2024-03-09T05:16:00.798Z,27.27
2024-03-09T05:20:12.213Z,26.77
2024-03-09T05:24:13.831Z,29.17
2024-03-09T05:28:17.726Z,27.92
2024-03-09T05:32:23.476Z,30.48
2024-03-09T05:36:25.124Z,28.17
2024-03-09T05:40:28.317Z,28.40
2024-03-09T05:44:29.848Z,28.73
2024-03-09T05:48:34.104Z,26.77
2024-03-09T05:52:35.609Z,27.67
2024-03-09T05:56:38.384Z,29.63
2024-03-09T06:00:39.911Z,30.75
2024-03-09T06:04:42.152Z,25.42
2024-03-09T06:08:43.653Z,27.40
2024-03-09T06:12:48.297Z,30.13
2024-03-09T06:16:50.033Z,29.40
2024-03-09T06:20:52.163Z,30.65
2024-03-09T06:24:53.753Z,29.73
2024-03-09T06:28:55.261Z,29.30
2024-03-09T06:32:59.188Z,27.60
2024-03-09T06:37:00.901Z,28.52
2024-03-09T06:41:03.635Z,29.90
2024-03-09T06:45:09.231Z,30.05
2024-03-09T06:49:10.747Z,29.75
2024-03-09T06:53:12.330Z,29.10
2024-03-09T06:57:13.941Z,23.98
2024-03-09T07:01:21.813Z,31.25
2024-03-09T07:05:23.564Z,29.42
2024-03-09T07:09:25.977Z,27.15
2024-03-09T07:13:27.654Z,29.60
2024-03-09T07:17:32.860Z,27.90
2024-03-09T07:21:34.472Z,28.65
2024-03-09T07:25:36.044Z,27.65
2024-03-09T07:29:37.861Z,25.77
2024-03-09T07:33:39.531Z,29.00
2024-03-09T07:37:46.978Z,26.23
2024-03-09T07:41:48.574Z,26.73
2024-03-09T07:45:50.132Z,19.17
2024-03-09T07:49:51.703Z,28.48
2024-03-09T07:53:53.638Z,30.23
2024-03-09T07:58:08.784Z,28.05
2024-03-09T08:02:16.731Z,26.75
2024-03-09T08:06:19.723Z,28.55
2024-03-09T08:10:25.338Z,23.90
2024-03-09T08:14:31.326Z,27.40
2024-03-09T08:18:33.355Z,27.60
2024-03-09T08:22:35.359Z,26.38
2024-03-09T08:26:37.108Z,24.80
2024-03-09T08:30:38.754Z,26.58
2024-03-09T08:34:40.302Z,26.10
2024-03-09T08:38:42.223Z,25.92
2024-03-09T08:42:45.338Z,25.08
2024-03-09T08:46:46.942Z,25.38
2024-03-09T08:50:48.511Z,23.48
2024-03-09T08:54:51.243Z,24.33
2024-03-09T08:58:59.718Z,24.13
2024-03-09T09:03:04.377Z,19.38
2024-03-09T09:07:06.040Z,24.20
2024-03-09T09:11:07.706Z,24.45
2024-03-09T09:15:10.222Z,22.80
2024-03-09T09:19:11.953Z,23.58
2024-03-09T09:23:13.561Z,25.77
2024-03-09T09:27:15.138Z,24.98
2024-03-09T09:31:16.900Z,23.50
2024-03-09T09:35:18.851Z,24.02
2024-03-09T09:39:26.284Z,21.67
2024-03-09T09:43:29.441Z,22.65
2024-03-09T09:47:31.823Z,21.50
2024-03-09T09:51:36.769Z,23.00
2024-03-09T09:55:38.830Z,22.67
2024-03-09T09:59:40.592Z,21.75
2024-03-09T10:03:42.153Z,22.73
2024-03-09T10:07:58.808Z,21.90
2024-03-09T10:12:01.231Z,21.90
2024-03-09T10:16:03.965Z,21.80
2024-03-09T10:20:07.610Z,20.17
2024-03-09T10:24:09.396Z,21.50
2024-03-09T10:28:12.132Z,19.58
2024-03-09T10:32:13.924Z,20.00
2024-03-09T10:36:16.813Z,20.95
2024-03-09T10:40:21.780Z,20.63
2024-03-09T10:44:24.991Z,20.65
2024-03-09T10:48:28.404Z,20.38
2024-03-09T10:52:34.801Z,19.20
2024-03-09T10:56:40.796Z,19.20
2024-03-09T11:00:50.701Z,20.45
2024-03-09T11:04:52.823Z,17.45
2024-03-09T11:08:57.882Z,16.42
2024-03-09T11:12:59.632Z,16.02
2024-03-09T11:17:01.906Z,17.20
2024-03-09T11:21:04.057Z,14.93
2024-03-09T11:25:12.393Z,16.98
2024-03-09T11:29:14.558Z,18.77
2024-03-09T11:33:19.509Z,17.13
2024-03-09T11:37:21.010Z,16.42
2024-03-09T11:41:26.032Z,16.75
2024-03-09T11:45:30.536Z,13.35
2024-03-09T11:49:34.614Z,15.15
2024-03-09T11:53:36.469Z,14.15
2024-03-09T11:57:39.343Z,13.88
2024-03-09T12:01:41.522Z,15.20
2024-03-09T12:05:44.360Z,14.43
2024-03-09T12:09:46.627Z,15.75
2024-03-09T12:13:48.654Z,14.80
2024-03-09T12:17:50.362Z,14.27
2024-03-09T12:21:53.251Z,14.80
2024-03-09T12:25:54.924Z,15.45
2024-03-09T12:29:56.794Z,16.25
2024-03-09T12:33:59.444Z,15.15
2024-03-09T12:38:14.081Z,16.75
2024-03-09T12:42:16.263Z,15.55
2024-03-09T12:46:19.156Z,17.77
2024-03-09T12:50:22.504Z,17.58
2024-03-09T12:54:25.820Z,17.38
2024-03-09T12:58:27.380Z,17.00
2024-03-09T13:02:34.664Z,18.70
2024-03-09T13:06:37.436Z,18.73
2024-03-09T13:10:41.332Z,18.60
2024-03-09T13:14:43.808Z,18.33
2024-03-09T13:18:48.579Z,18.52
2024-03-09T13:22:50.667Z,16.30
2024-03-09T13:26:52.975Z,17.10
2024-03-09T13:30:54.757Z,17.85
2024-03-09T13:34:56.301Z,14.93
2024-03-09T13:38:57.815Z,17.63
2024-03-09T13:42:59.711Z,14.95
2024-03-09T13:47:01.392Z,16.65
2024-03-09T13:51:03.864Z,17.25
2024-03-09T13:55:05.918Z,15.60
2024-03-09T13:59:15.131Z,15.27
2024-03-09T14:03:16.949Z,17.10
2024-03-09T14:07:23.616Z,16.55
2024-03-09T14:11:30.052Z,16.60
2024-03-09T14:15:34.175Z,14.95
2024-03-09T14:19:40.303Z,16.65
2024-03-09T14:23:43.948Z,15.55
2024-03-09T14:27:45.637Z,14.20
2024-03-09T14:31:47.854Z,14.55
2024-03-09T14:35:49.810Z,13.57
2024-03-09T14:39:51.409Z,13.98
2024-03-09T14:43:53.897Z,13.40
2024-03-09T14:48:00.285Z,13.55
2024-03-09T14:52:02.395Z,12.13
2024-03-09T14:56:05.356Z,12.77
2024-03-09T15:00:16.170Z,12.55
2024-03-09T15:04:17.699Z,12.15
2024-03-09T15:08:20.064Z,12.27
2024-03-09T15:12:22.180Z,13.18
2024-03-09T15:16:25.812Z,12.07
2024-03-09T15:20:28.346Z,12.35
2024-03-09T15:24:30.100Z,14.63
2024-03-09T15:28:31.866Z,12.73
2024-03-09T15:32:33.552Z,12.88
2024-03-09T15:36:38.244Z,14.00
2024-03-09T15:40:39.876Z,12.63
2024-03-09T15:44:41.388Z,13.38
2024-03-09T15:48:42.926Z,12.60
2024-03-09T15:52:45.092Z,14.05
2024-03-09T15:56:48.544Z,13.48
2024-03-09T16:00:50.132Z,14.32
2024-03-09T16:04:51.671Z,12.38
2024-03-09T16:08:53.906Z,13.43
2024-03-09T16:12:56.881Z,12.40
2024-03-09T16:16:58.457Z,12.88
2024-03-09T16:21:07.785Z,12.65
2024-03-09T16:25:10.189Z,12.55
2024-03-09T16:29:11.769Z,10.85
2024-03-09T16:33:15.051Z,13.48
2024-03-09T16:37:16.811Z,11.63
2024-03-09T16:41:24.241Z,13.68
2024-03-09T16:45:29.034Z,12.48
2024-03-09T16:49:33.816Z,12.55
2024-03-09T16:53:35.725Z,13.70
2024-03-09T16:57:38.593Z,14.30
2024-03-09T17:01:44.730Z,14.10
2024-03-09T17:05:46.455Z,13.90
2024-03-09T17:09:48.046Z,15.55
2024-03-09T17:13:52.076Z,14.60
2024-03-09T17:18:00.458Z,15.30
2024-03-09T17:22:03.838Z,15.82
2024-03-09T17:26:05.517Z,16.08
2024-03-09T17:30:08.073Z,16.23
2024-03-09T17:34:09.580Z,15.73
2024-03-09T17:38:11.845Z,14.57
2024-03-09T17:42:14.019Z,14.90
2024-03-09T17:46:17.328Z,15.32
2024-03-09T17:50:20.378Z,15.15
2024-03-09T17:54:22.213Z,16.42
2024-03-09T17:58:23.793Z,16.27
2024-03-09T18:02:28.010Z,16.27
2024-03-09T18:06:30.668Z,15.45
2024-03-09T18:10:33.008Z,16.15
2024-03-09T18:14:34.822Z,15.57
2024-03-09T18:18:36.976Z,15.52
2024-03-09T18:22:38.587Z,17.23
2024-03-09T18:26:40.061Z,15.75
2024-03-09T18:30:41.683Z,16.27
2024-03-09T18:34:43.360Z,16.08
2024-03-09T18:38:45.367Z,17.33
2024-03-09T18:42:47.704Z,15.82
2024-03-09T18:46:54.410Z,15.32
2024-03-09T18:50:57.019Z,15.73
2024-03-09T18:54:58.620Z,15.32
2024-03-09T18:59:01.635Z,16.15
2024-03-09T19:03:07.887Z,15.60
2024-03-09T19:07:10.883Z,16.08
2024-03-09T19:11:12.699Z,16.65
2024-03-09T19:15:15.060Z,16.27
2024-03-09T19:19:16.673Z,16.00
2024-03-09T19:23:18.359Z,16.55
2024-03-09T19:27:20.179Z,16.17
2024-03-09T19:31:23.699Z,15.52
2024-03-09T19:35:27.865Z,15.93
2024-03-09T19:39:29.925Z,16.40
2024-03-09T19:43:31.439Z,15.52
2024-03-09T19:47:33.339Z,16.13
2024-03-09T19:51:34.928Z,16.40
2024-03-09T19:55:36.740Z,16.65
2024-03-09T19:59:38.384Z,17.13
2024-03-09T20:03:40.688Z,17.85
2024-03-09T20:07:42.682Z,19.38
2024-03-09T20:11:44.866Z,17.67
2024-03-09T20:15:46.441Z,17.02
2024-03-09T20:19:48.433Z,16.58
2024-03-09T20:23:50.469Z,18.60
2024-03-09T20:27:52.648Z,20.10
2024-03-09T20:31:54.807Z,19.40
2024-03-09T20:35:57.853Z,18.55
2024-03-09T20:40:07.376Z,17.75
2024-03-09T20:44:09.941Z,19.38
2024-03-09T20:48:14.228Z,18.73
2024-03-09T20:52:19.567Z,19.38
2024-03-09T20:56:21.936Z,18.42
2024-03-09T21:00:24.693Z,19.17
2024-03-09T21:04:26.518Z,20.27
2024-03-09T21:08:28.163Z,18.70
2024-03-09T21:12:31.140Z,20.10
2024-03-09T21:16:32.799Z,19.45
2024-03-09T21:20:34.619Z,18.67
2024-03-09T21:24:36.374Z,19.40
2024-03-09T21:28:40.633Z,18.05
2024-03-09T21:32:44.168Z,18.92
2024-03-09T21:36:47.199Z,17.75
2024-03-09T21:40:49.842Z,17.73
2024-03-09T21:44:52.477Z,17.67
2024-03-09T21:48:54.261Z,18.60
2024-03-09T21:52:56.359Z,18.48
2024-03-09T21:56:57.937Z,17.10
2024-03-09T22:00:59.461Z,16.95
2024-03-09T22:05:01.088Z,14.35
2024-03-09T22:09:03.037Z,16.83
2024-03-09T22:13:05.370Z,17.50
2024-03-09T22:17:07.069Z,17.13
2024-03-09T22:21:10.851Z,17.95
2024-03-09T22:25:14.636Z,16.48
2024-03-09T22:29:19.380Z,17.73
2024-03-09T22:33:21.006Z,18.77
2024-03-09T22:37:22.638Z,17.70
2024-03-09T22:41:24.327Z,17.98
2024-03-09T22:45:26.765Z,16.38
2024-03-09T22:49:28.242Z,18.55
2024-03-09T22:53:30.696Z,16.13
2024-03-09T22:57:32.357Z,15.70
2024-03-09T23:01:49.474Z,17.02
2024-03-09T23:05:51.092Z,16.75
2024-03-09T23:09:52.598Z,16.30
2024-03-09T23:13:54.249Z,16.40
2024-03-09T23:17:56.389Z,16.65
2024-03-09T23:22:01.791Z,16.83
2024-03-09T23:26:03.457Z,17.55
2024-03-09T23:30:05.477Z,16.83
2024-03-09T23:34:08.097Z,15.80
2024-03-09T23:38:10.364Z,18.33
2024-03-09T23:42:12.840Z,17.15
2024-03-09T23:46:14.316Z,17.73
2024-03-09T23:50:18.360Z,17.73
2024-03-09T23:54:20.523Z,16.73
2024-03-09T23:58:21.957Z,16.60
